Hovedside
METAR-TAF:

METAR-TAF

Lufthavner :

Namsos lufthavn

Namsos, Norge

breddegrad: 64-28N, lengdegrad: 011-35E, høyde over havet: 0 m

Gjeldene værobservasjon

Denne rapporten ble laget for 31 minutter siden, klokken 08:20 UTC
Vind 9 kt fra Nordøst
Temperatur -8°C
Luftfuktighet 100%
Trykk 1031 hPa
Sikt: 3500 m
Få skyer i en høyde av 200 ft
tåke i nærheten

METAR: ENNM 120820Z 05009KT 9999 3500E VCFG FEW002 M08/M08 Q1031

Tid: 09:51 (08:51 UTC)


TAF: fraværende

Værobservasjoner og værvarsel for over 4000 flyplasser (METAR- og TAF-rapporter).

Tilgjengelige stasjoner er representert av de røde og gule prikkene på kartet.

Hold musepekeren over prikken for å se navnet på stasjonen.

Klikk så for å se værobservasjoner og -varsler.

For å forandre kartet kan du klikke på den grønne knappen med svart kryss for å zoome inn, på den grønne knappen med strek for å zoome ut, eller på de grønne pilene for å se tilstøtende kart.


METAR-TAF: